Time;durP1;ratioP1;P1;durP2;ratioP2;P2;SDS_P1;SDS_P2;PMS_P1;PMS_P2;Temp;Humidity;BMP_temperature;BMP_pressure;BME280_temperature;BME280_humidity;BME280_pressure;Samples;Min_cycle;Max_cycle;Signal;HPM_P1;HPM_P2
2021/12/11 00:00:49;;;;;;;39.90;23.57;;;;;;;-142.75;100.00;77385.31;5000186;28;20491;-66
2021/12/11 00:03:24;;;;;;;35.73;21.30;;;;;;;-142.75;100.00;77387.28;4996386;28;20041;-66
2021/12/11 00:05:55;;;;;;;40.57;23.07;;;;;;;-142.75;100.00;77383.34;4989122;28;20096;-67
2021/12/11 00:08:24;;;;;;;39.70;22.63;;;;;;;-142.75;100.00;77387.28;4994448;28;20053;-67
2021/12/11 00:10:55;;;;;;;37.87;21.40;;;;;;;-142.75;100.00;77387.28;4997671;28;20084;-67
2021/12/11 00:13:25;;;;;;;40.77;22.03;;;;;;;-142.75;100.00;77387.28;4989096;28;20055;-67
2021/12/11 00:15:51;;;;;;;37.13;21.30;;;;;;;-142.75;100.00;77403.03;5006907;28;20391;-67
2021/12/11 00:18:24;;;;;;;40.20;21.48;;;;;;;-142.75;100.00;77399.09;5008415;28;20026;-67
2021/12/11 00:20:57;;;;;;;35.73;21.10;;;;;;;-142.75;100.00;77408.94;4993030;28;20503;-67
2021/12/11 00:23:28;;;;;;;37.90;23.23;;;;;;;-142.75;100.00;77401.06;4990063;28;20022;-68
2021/12/11 00:25:53;;;;;;;39.23;21.37;;;;;;;-142.75;100.00;77405.00;5000173;28;20030;-65
2021/12/11 00:28:20;;;;;;;38.50;22.70;;;;;;;-142.75;100.00;77401.06;4988924;28;20062;-67
2021/12/11 00:30:46;;;;;;;35.53;20.73;;;;;;;-142.75;100.00;77405.00;4986555;28;20463;-67
2021/12/11 00:33:19;;;;;;;38.07;21.90;;;;;;;-142.75;100.00;77401.06;5003531;28;20119;-67
2021/12/11 00:35:46;;;;;;;34.63;20.90;;;;;;;-142.75;100.00;77405.00;4992098;28;20103;-68
2021/12/11 00:38:25;;;;;;;36.53;21.67;;;;;;;-142.75;100.00;77428.63;4989913;28;20480;-68
2021/12/11 00:40:54;;;;;;;36.57;20.27;;;;;;;-142.75;100.00;77446.34;4987894;28;20029;-68
2021/12/11 00:43:28;;;;;;;32.87;21.30;;;;;;;-142.75;100.00;77438.47;4988538;28;20023;-67
2021/12/11 00:45:55;;;;;;;35.87;20.87;;;;;;;-142.75;100.00;77432.56;4988005;28;20075;-66
2021/12/11 00:48:22;;;;;;;;;;;;;;;-142.75;100.00;77436.50;5002094;28;20022;-67
2021/12/11 00:50:52;;;;;;;36.08;20.75;;;;;;;-142.75;100.00;77450.28;5004398;28;20364;-68
2021/12/11 00:53:57;;;;;;;34.87;20.53;;;;;;;-142.75;100.00;77466.03;4988776;28;20049;-67
2021/12/11 00:56:27;;;;;;;37.13;21.57;;;;;;;-142.75;100.00;77456.22;5000172;28;20129;-65
2021/12/11 00:58:55;;;;;;;35.03;20.70;;;;;;;-142.75;100.00;77483.78;4986964;28;20415;-66
2021/12/11 01:01:30;;;;;;;29.10;17.33;;;;;;;-142.75;100.00;77487.72;4987508;28;20034;-68
2021/12/11 01:04:17;;;;;;;29.33;17.53;;;;;;;-142.75;100.00;77505.44;4989093;28;20117;-66
2021/12/11 01:06:49;;;;;;;30.52;18.77;;;;;;;-142.75;100.00;77497.56;5005786;28;20021;-66
2021/12/11 01:09:18;;;;;;;33.47;21.03;;;;;;;-142.75;100.00;77491.66;5007393;28;20032;-66
2021/12/11 01:12:13;;;;;;;34.67;21.53;;;;;;;-142.75;100.00;77509.38;5005360;28;20104;-66
2021/12/11 01:15:07;;;;;;;41.57;24.00;;;;;;;-142.75;100.00;77511.34;5008579;28;20037;-67
2021/12/11 01:17:43;;;;;;;45.87;25.80;;;;;;;-142.75;100.00;77507.41;5007273;28;20018;-66
2021/12/11 01:20:33;;;;;;;45.55;26.30;;;;;;;-142.75;100.00;77497.56;5006430;28;20029;-67
2021/12/11 01:22:59;;;;;;;37.73;22.37;;;;;;;-142.75;100.00;77507.41;5007521;28;20068;-65
2021/12/11 01:25:27;;;;;;;43.15;26.33;;;;;;;-142.75;100.00;77511.34;5003306;28;20066;-66
2021/12/11 01:28:03;;;;;;;42.07;26.00;;;;;;;-142.75;100.00;77519.22;4993905;28;20022;-66
2021/12/11 01:30:38;;;;;;;39.22;25.33;;;;;;;-142.75;100.00;77536.94;4996266;28;20114;-65
2021/12/11 01:33:06;;;;;;;45.20;25.40;;;;;;;-142.75;100.00;77546.78;4991747;28;20022;-66
2021/12/11 01:35:31;;;;;;;44.03;24.10;;;;;;;-142.75;100.00;77538.91;4984448;28;20392;-66
2021/12/11 01:38:19;;;;;;;39.75;23.65;;;;;;;-142.75;100.00;77527.09;4987520;28;20083;-66
2021/12/11 01:40:48;;;;;;;41.27;23.10;;;;;;;-142.75;100.00;77533.00;5000045;28;20148;-67
2021/12/11 01:43:14;;;;;;;37.13;22.10;;;;;;;-142.75;100.00;77534.97;4995344;28;20026;-67
2021/12/11 01:45:46;;;;;;;42.10;23.77;;;;;;;-142.75;100.00;77534.97;4989836;28;20143;-66
2021/12/11 01:48:18;;;;;;;47.07;25.63;;;;;;;-142.75;100.00;77531.03;5006948;28;20066;-67
2021/12/11 01:50:48;;;;;;;36.43;21.80;;;;;;;-142.75;100.00;77525.13;4989921;28;20026;-66
2021/12/11 01:53:21;;;;;;;39.63;22.13;;;;;;;-142.75;100.00;77523.16;4987758;28;20056;-66
2021/12/11 01:55:54;;;;;;;33.47;20.23;;;;;;;-142.75;100.00;77523.16;4987267;28;20376;-66
2021/12/11 01:59:02;;;;;;;36.27;20.77;;;;;;;-142.75;100.00;77544.81;5000753;28;20053;-66
2021/12/11 02:01:44;;;;;;;34.70;20.20;;;;;;;-142.75;100.00;77542.84;5007897;28;20065;-66
2021/12/11 02:04:15;;;;;;;34.90;19.97;;;;;;;-142.75;100.00;77542.84;5000474;28;20112;-66
2021/12/11 02:06:43;;;;;;;33.97;20.20;;;;;;;-142.75;100.00;77560.56;5006126;28;20030;-66
2021/12/11 02:09:19;;;;;;;29.83;19.13;;;;;;;-142.75;100.00;77568.44;5005452;28;20557;-66
2021/12/11 02:11:46;;;;;;;38.37;19.60;;;;;;;-142.75;100.00;77572.38;5005480;28;20079;-66
2021/12/11 02:14:15;;;;;;;33.30;19.70;;;;;;;-142.75;100.00;77572.38;5006566;28;20113;-66
2021/12/11 02:16:45;;;;;;;32.73;19.90;;;;;;;-142.75;100.00;77560.56;4997817;28;20112;-67
2021/12/11 02:19:33;;;;;;;32.87;18.97;;;;;;;-142.75;100.00;77570.41;5004696;28;20471;-66
2021/12/11 02:22:01;;;;;;;33.10;18.80;;;;;;;-142.75;100.00;77578.28;4985195;28;20030;-65
2021/12/11 02:24:38;;;;;;;31.77;19.03;;;;;;;-142.75;100.00;77597.97;4987541;28;20045;-65
2021/12/11 02:27:11;;;;;;;30.03;18.17;;;;;;;-142.75;100.00;77601.91;4986646;28;20030;-66
2021/12/11 02:29:54;;;;;;;30.30;17.90;;;;;;;-142.75;100.00;77601.91;4986556;28;20038;-66
2021/12/11 02:32:32;;;;;;;29.10;18.00;;;;;;;-142.75;100.00;77609.78;4988433;28;20042;-66
2021/12/11 02:35:32;;;;;;;29.07;17.63;;;;;;;-142.75;100.00;77603.88;4987383;28;20507;-66
2021/12/11 02:38:20;;;;;;;32.67;19.53;;;;;;;-142.75;100.00;77621.59;5003060;28;20384;-67
2021/12/11 02:40:54;;;;;;;40.33;19.33;;;;;;;-142.75;100.00;77627.50;5005021;28;20026;-66
2021/12/11 02:43:41;;;;;;;29.67;16.97;;;;;;;-142.75;100.00;77629.47;5005899;28;20033;-66
2021/12/11 02:46:27;;;;;;;33.03;17.05;;;;;;;-142.75;100.00;77635.38;5006151;28;20112;-66
2021/12/11 02:49:00;;;;;;;29.23;16.17;;;;;;;-142.75;100.00;77645.22;5006025;28;20087;-65
2021/12/11 02:51:36;;;;;;;26.53;16.23;;;;;;;-142.75;100.00;77657.03;5005139;28;20029;-66
2021/12/11 02:54:09;;;;;;;29.15;16.20;;;;;;;-142.75;100.00;77649.16;5006546;28;20041;-66
2021/12/11 02:56:43;;;;;;;31.33;17.80;;;;;;;-142.75;100.00;77649.16;5005828;28;20026;-67
2021/12/11 02:59:14;;;;;;;30.87;17.40;;;;;;;-142.75;100.00;77637.34;5005729;28;20414;-67
2021/12/11 03:01:54;;;;;;;29.63;16.83;;;;;;;-142.75;100.00;77641.28;5000905;28;20029;-66
2021/12/11 03:05:08;;;;;;;30.93;17.47;;;;;;;-142.75;100.00;77641.28;5006014;28;20113;-66
2021/12/11 03:07:20;;;;;;;28.20;15.67;;;;;;;-142.75;100.00;77645.22;5007542;28;20448;-66
2021/12/11 03:09:49;;;;;;;29.70;16.10;;;;;;;-142.75;100.00;77635.38;5005220;28;20038;-65
2021/12/11 03:12:17;;;;;;;29.20;16.63;;;;;;;-142.75;100.00;77633.41;5005355;28;20057;-66
2021/12/11 03:14:43;;;;;;;32.77;16.30;;;;;;;-142.75;100.00;77631.44;5004453;28;20522;-66
2021/12/11 03:17:10;;;;;;;34.13;17.90;;;;;;;-142.75;100.00;77629.47;5004359;28;20025;-67
2021/12/11 03:19:39;;;;;;;32.20;16.60;;;;;;;-142.75;100.00;77635.38;5005561;28;20036;-66
2021/12/11 03:22:09;;;;;;;30.87;16.17;;;;;;;-142.75;100.00;77645.22;4999336;28;20026;-66
2021/12/11 03:24:36;;;;;;;28.23;16.47;;;;;;;-142.75;100.00;77641.28;4986783;28;20066;-66
2021/12/11 03:27:03;;;;;;;26.90;15.03;;;;;;;-142.75;100.00;77653.09;4985965;28;20034;-66
2021/12/11 03:29:29;;;;;;;30.17;16.07;;;;;;;-142.75;100.00;77645.22;4984467;28;20087;-65
2021/12/11 03:31:56;;;;;;;27.53;14.97;;;;;;;-142.75;100.00;77647.19;4985305;28;20034;-65
2021/12/11 03:34:24;;;;;;;29.70;17.17;;;;;;;-142.75;100.00;77647.19;4985956;28;20030;-67
2021/12/11 03:36:50;;;;;;;34.50;17.87;;;;;;;-142.75;100.00;77649.16;4984530;28;20046;-66
2021/12/11 03:39:18;;;;;;;;;;;;;;;-142.75;100.00;77645.22;4989384;28;20411;-66
2021/12/11 03:41:47;;;;;;;30.03;16.30;;;;;;;-142.75;100.00;77639.31;5004685;28;19913;-66
2021/12/11 03:44:14;;;;;;;30.10;16.57;;;;;;;-142.75;100.00;77645.22;5005273;28;20501;-66
2021/12/11 03:46:40;;;;;;;33.10;16.93;;;;;;;-142.75;100.00;77653.09;5005319;28;20026;-66
2021/12/11 03:49:11;;;;;;;26.33;15.73;;;;;;;-142.75;100.00;77653.09;4994079;28;20031;-66
2021/12/11 03:51:39;;;;;;;26.73;15.67;;;;;;;-142.75;100.00;77649.16;4987595;28;20490;-67
2021/12/11 03:54:07;;;;;;;30.40;17.70;;;;;;;-142.75;100.00;77653.09;5007293;28;20030;-66
2021/12/11 03:56:33;;;;;;;27.03;16.00;;;;;;;-142.75;100.00;77666.88;5005700;28;20025;-66
2021/12/11 03:59:00;;;;;;;;;;;;;;;-142.75;100.00;77655.06;5007692;28;20128;-66
2021/12/11 04:01:30;;;;;;;38.33;17.38;;;;;;;-142.75;100.00;77664.91;5007442;28;19913;-66
2021/12/11 04:04:03;;;;;;;32.53;17.20;;;;;;;-142.75;100.00;77680.66;5008286;28;20034;-66
2021/12/11 04:06:29;;;;;;;30.50;17.83;;;;;;;-142.75;100.00;77688.53;5008459;28;20113;-65
2021/12/11 04:08:55;;;;;;;30.00;16.10;;;;;;;-142.75;100.00;77682.63;5003559;28;20105;-66
2021/12/11 04:11:27;;;;;;;30.10;17.07;;;;;;;-142.75;100.00;77688.53;4997918;28;20123;-66
2021/12/11 04:13:57;;;;;;;29.63;17.13;;;;;;;-142.75;100.00;77692.47;4988759;28;20115;-64
2021/12/11 04:16:28;;;;;;;31.40;16.80;;;;;;;-142.75;100.00;77708.22;4987392;28;20026;-64
2021/12/11 04:18:54;;;;;;;32.90;17.17;;;;;;;-142.75;100.00;77718.06;4989488;28;20034;-66
2021/12/11 04:21:20;;;;;;;33.67;17.45;;;;;;;-142.75;100.00;77716.09;5007812;28;20037;-65
2021/12/11 04:23:46;;;;;;;28.47;16.27;;;;;;;-142.75;100.00;77718.06;5008670;28;20082;-66
2021/12/11 04:26:11;;;;;;;31.02;17.13;;;;;;;-142.75;100.00;77727.94;4996075;28;20026;-66
2021/12/11 04:28:46;;;;;;;29.55;16.65;;;;;;;-142.75;100.00;77714.13;4988476;28;20049;-67
2021/12/11 04:31:21;;;;;;;35.23;17.80;;;;;;;-142.75;100.00;77743.69;4987690;28;20041;-66
2021/12/11 04:33:49;;;;;;;33.63;17.50;;;;;;;-142.75;100.00;77745.66;4990473;28;20498;-66
2021/12/11 04:36:28;;;;;;;33.00;17.07;;;;;;;-142.75;100.00;77765.34;4996470;28;20042;-67
2021/12/11 04:38:55;;;;;;;30.63;17.17;;;;;;;-142.75;100.00;77788.97;5005905;28;20029;-64
2021/12/11 04:41:37;;;;;;;29.53;17.53;;;;;;;-142.75;100.00;77785.03;5007170;28;20437;-65
2021/12/11 04:44:09;;;;;;;31.87;18.00;;;;;;;-142.75;100.00;77777.16;5008038;28;20034;-65
2021/12/11 04:46:34;;;;;;;32.50;18.80;;;;;;;-142.75;100.00;77783.06;5007688;28;20079;-65
2021/12/11 04:49:08;;;;;;;31.70;18.48;;;;;;;-142.75;100.00;77792.91;5006781;28;20034;-66
2021/12/11 04:51:45;;;;;;;34.23;18.27;;;;;;;-142.75;100.00;77802.75;5006737;28;20026;-66
2021/12/11 04:57:20;;;;;;;36.27;18.77;;;;;;;-142.75;100.00;77818.50;5007888;28;20479;-65
2021/12/11 05:10:55;;;;;;;32.47;16.60;;;;;;;-142.75;100.00;77808.66;4978344;28;20126;-65
2021/12/11 05:13:23;;;;;;;33.27;16.17;;;;;;;-142.75;100.00;77806.69;4988096;28;20032;-66
2021/12/11 05:15:52;;;;;;;30.00;15.93;;;;;;;-142.75;100.00;77792.91;4988221;28;20109;-66
2021/12/11 05:18:21;;;;;;;28.83;15.37;;;;;;;-142.75;100.00;77798.81;4987960;28;20041;-65
2021/12/11 05:20:49;;;;;;;30.50;13.90;;;;;;;-142.75;100.00;77794.88;4985826;28;20121;-66
2021/12/11 05:23:16;;;;;;;29.03;13.83;;;;;;;-142.75;100.00;77787.00;5010658;23;20057;-64
2021/12/11 05:25:42;;;;;;;25.00;13.27;;;;;;;-142.75;100.00;77785.03;4987852;28;20030;-66
2021/12/11 05:28:07;;;;;;;21.35;11.18;;;;;;;-142.75;100.00;77775.19;4987655;28;20105;-66
2021/12/11 05:30:37;;;;;;;20.35;10.65;;;;;;;-142.75;100.00;77771.25;4986950;28;20031;-66
2021/12/11 05:33:03;;;;;;;25.07;10.83;;;;;;;-142.75;100.00;77765.34;4987612;28;20033;-66
2021/12/11 05:35:31;;;;;;;24.15;9.50;;;;;;;-142.75;100.00;77769.28;4986474;28;20496;-66
2021/12/11 05:37:58;;;;;;;18.87;8.17;;;;;;;-142.75;100.00;77763.38;4987365;28;20030;-65
2021/12/11 05:40:25;;;;;;;16.77;7.27;;;;;;;-142.75;100.00;77737.78;4985877;28;20026;-66
2021/12/11 05:42:51;;;;;;;21.57;7.00;;;;;;;-142.75;100.00;77727.94;4987035;28;20080;-66
2021/12/11 05:45:16;;;;;;;;;;;;;;;-142.75;100.00;77727.94;4988583;28;20067;-66
2021/12/11 05:47:42;;;;;;;16.87;4.83;;;;;;;-142.75;100.00;77735.81;4987997;28;20265;-66
2021/12/11 05:50:12;;;;;;;17.07;4.57;;;;;;;-142.75;100.00;77723.97;4987208;28;20479;-66
2021/12/11 05:52:37;;;;;;;12.57;3.80;;;;;;;-142.75;100.00;77735.81;4984740;28;20037;-66
2021/12/11 05:55:07;;;;;;;7.10;2.22;;;;;;;-142.75;100.00;77729.88;4988186;28;20026;-66
2021/12/11 05:57:34;;;;;;;14.50;2.83;;;;;;;-142.75;100.00;77733.84;4987783;28;20539;-66
2021/12/11 06:00:00;;;;;;;10.23;2.77;;;;;;;-142.75;100.00;77733.84;4987036;28;20396;-65
2021/12/11 06:02:27;;;;;;;11.02;2.70;;;;;;;-142.75;100.00;77737.78;4987629;28;20084;-65
2021/12/11 06:04:55;;;;;;;22.67;2.87;;;;;;;-142.75;100.00;77731.88;4987858;28;20408;-66
2021/12/11 06:07:24;;;;;;;7.50;1.20;;;;;;;-142.75;100.00;77729.88;4987976;28;20443;-66
2021/12/11 06:09:55;;;;;;;15.37;2.97;;;;;;;-142.75;100.00;77722.00;4987037;28;20026;-66
2021/12/11 06:12:22;;;;;;;16.90;1.53;;;;;;;-142.75;100.00;77722.00;4987843;28;20027;-65
2021/12/11 06:14:49;;;;;;;11.30;1.50;;;;;;;-142.75;100.00;77712.16;4987889;28;20439;-66
2021/12/11 06:17:18;;;;;;;10.70;1.50;;;;;;;-142.75;100.00;77698.38;4987593;28;20075;-65
2021/12/11 06:19:51;;;;;;;15.47;2.10;;;;;;;-142.75;100.00;77698.38;4985507;28;20067;-65
2021/12/11 06:22:18;;;;;;;7.93;1.60;;;;;;;-142.75;100.00;77692.47;4987216;28;20023;-66
2021/12/11 06:24:44;;;;;;;14.00;1.43;;;;;;;-142.75;100.00;77692.47;4986272;28;20063;-66
2021/12/11 06:27:09;;;;;;;10.10;1.20;;;;;;;-142.75;100.00;77690.50;4987469;28;20125;-66
2021/12/11 06:29:35;;;;;;;12.07;1.37;;;;;;;-142.75;100.00;77692.47;4987402;28;20026;-65
2021/12/11 06:32:00;;;;;;;9.70;0.73;;;;;;;-142.75;100.00;77682.63;4986512;28;20510;-66
2021/12/11 06:34:26;;;;;;;7.88;1.80;;;;;;;-142.75;100.00;77684.59;4987278;28;20102;-66
2021/12/11 06:36:52;;;;;;;6.60;1.40;;;;;;;-142.75;100.00;77684.59;4987153;28;20037;-65
2021/12/11 06:39:23;;;;;;;8.00;1.10;;;;;;;-142.75;100.00;77684.59;4987601;28;20144;-66
2021/12/11 06:41:54;;;;;;;10.90;2.30;;;;;;;-142.75;100.00;77678.69;4986779;28;20037;-66
2021/12/11 06:44:20;;;;;;;6.60;0.97;;;;;;;-142.75;100.00;77684.59;4987592;28;20499;-66
2021/12/11 06:46:48;;;;;;;10.55;1.10;;;;;;;-142.75;100.00;77702.31;4987007;28;20030;-65
2021/12/11 06:49:14;;;;;;;8.00;1.20;;;;;;;-142.75;100.00;77704.28;4987215;28;20033;-66
2021/12/11 06:51:39;;;;;;;9.10;1.40;;;;;;;-142.75;100.00;77700.34;4986197;28;20034;-66
2021/12/11 06:54:08;;;;;;;5.70;0.93;;;;;;;-142.75;100.00;77712.16;4987046;28;20030;-66
2021/12/11 06:56:35;;;;;;;8.50;1.10;;;;;;;-142.75;100.00;77704.28;4986990;28;20021;-66
2021/12/11 06:59:01;;;;;;;7.97;1.00;;;;;;;-142.75;100.00;77710.19;4987075;28;20018;-66
2021/12/11 07:01:27;;;;;;;3.03;0.88;;;;;;;-142.75;100.00;77704.28;4985058;28;20391;-65
2021/12/11 07:03:56;;;;;;;10.80;1.35;;;;;;;-142.75;100.00;77708.22;4985491;28;20034;-65
2021/12/11 07:06:23;;;;;;;8.23;1.27;;;;;;;-142.75;100.00;77718.06;4987114;28;20034;-66
2021/12/11 07:08:49;;;;;;;3.87;0.73;;;;;;;-142.75;100.00;77733.84;4987314;28;20518;-66
2021/12/11 07:11:16;;;;;;;7.17;1.13;;;;;;;-142.75;100.00;77727.94;4986175;28;20026;-66
2021/12/11 07:13:43;;;;;;;7.07;1.33;;;;;;;-142.75;100.00;77741.72;4986869;28;20512;-66
2021/12/11 07:16:09;;;;;;;5.40;1.10;;;;;;;-142.75;100.00;77743.69;4986723;28;20064;-66
2021/12/11 07:18:35;;;;;;;3.20;1.00;;;;;;;-142.75;100.00;77757.47;4986752;28;20103;-66
2021/12/11 07:21:01;;;;;;;6.95;1.02;;;;;;;-142.75;100.00;77751.56;4986017;28;20026;-66
2021/12/11 07:23:27;;;;;;;7.47;1.00;;;;;;;-142.75;100.00;77763.38;4986551;28;20023;-65
2021/12/11 07:26:04;;;;;;;5.53;1.15;;;;;;;-142.75;100.00;77759.44;4988444;28;20107;-65
2021/12/11 07:28:30;;;;;;;7.23;0.93;;;;;;;-142.75;100.00;77775.19;4990126;28;20488;-65
2021/12/11 07:30:59;;;;;;;5.60;1.02;;;;;;;-142.75;100.00;77775.19;4989556;28;20023;-65
2021/12/11 07:33:25;;;;;;;6.10;1.83;;;;;;;-142.75;100.00;77783.06;4989887;28;20105;-66
2021/12/11 07:35:51;;;;;;;8.07;1.27;;;;;;;-142.75;100.00;77779.13;4990264;28;20418;-66
2021/12/11 07:38:17;;;;;;;5.43;0.97;;;;;;;-142.75;100.00;77781.09;4990244;28;20426;-66
2021/12/11 07:40:48;;;;;;;11.18;1.58;;;;;;;-142.75;100.00;77775.19;4986731;28;20045;-66
2021/12/11 07:43:16;;;;;;;4.37;1.00;;;;;;;-142.75;100.00;77777.16;4987085;28;20037;-65
2021/12/11 07:45:41;;;;;;;8.87;1.57;;;;;;;-142.75;100.00;77788.97;4989703;28;20080;-66
2021/12/11 07:48:08;;;;;;;9.70;1.88;;;;;;;-142.75;100.00;77794.88;4988471;28;20480;-65
2021/12/11 07:50:34;;;;;;;6.63;1.50;;;;;;;-142.75;100.00;77787.00;4988982;28;20456;-66
2021/12/11 07:52:59;;;;;;;8.23;1.48;;;;;;;-142.75;100.00;77779.13;4989625;28;20061;-67
2021/12/11 07:55:25;;;;;;;5.78;2.00;;;;;;;-142.75;100.00;77787.00;4989433;28;20122;-66
2021/12/11 07:57:51;;;;;;;11.15;3.30;;;;;;;-142.75;100.00;77781.09;4989804;28;20025;-66
2021/12/11 08:00:21;;;;;;;11.15;2.90;;;;;;;-142.75;100.00;77794.88;4989102;28;20026;-66
2021/12/11 08:02:47;;;;;;;11.83;2.80;;;;;;;-142.75;100.00;77787.00;4989703;28;20535;-66
2021/12/11 08:05:13;;;;;;;9.10;3.25;;;;;;;-142.75;100.00;77790.94;4989446;28;20106;-67
2021/12/11 08:07:39;;;;;;;10.45;3.10;;;;;;;-142.75;100.00;77792.91;4989347;28;20030;-67
2021/12/11 08:10:08;;;;;;;10.18;3.25;;;;;;;-142.75;100.00;77792.91;4988677;28;20026;-67
2021/12/11 08:12:33;;;;;;;10.57;4.03;;;;;;;-142.75;100.00;77794.88;4989267;28;20117;-66
2021/12/11 08:14:59;;;;;;;9.18;3.28;;;;;;;-142.75;100.00;77806.69;4989334;28;20587;-67
2021/12/11 08:17:24;;;;;;;8.13;3.25;;;;;;;-142.75;100.00;77818.50;4989389;28;20635;-67
2021/12/11 08:19:50;;;;;;;8.70;3.67;;;;;;;-142.75;100.00;77814.56;4988758;28;20037;-66
2021/12/11 08:22:15;;;;;;;8.88;3.70;;;;;;;-142.75;100.00;77820.47;4987892;28;20472;-67
2021/12/11 08:24:41;;;;;;;10.03;3.90;;;;;;;-142.75;100.00;77834.25;4989160;28;20026;-66
2021/12/11 08:27:12;;;;;;;11.70;3.78;;;;;;;-142.75;100.00;77828.34;4989152;28;20325;-67
2021/12/11 08:29:39;;;;;;;9.03;4.00;;;;;;;-142.75;100.00;77846.06;4988676;28;20056;-66
2021/12/11 08:32:06;;;;;;;14.57;4.93;;;;;;;-142.75;100.00;77838.19;4988881;28;20034;-67
2021/12/11 08:34:32;;;;;;;14.20;3.90;;;;;;;-142.75;100.00;77836.22;4988388;28;20023;-66
2021/12/11 08:36:58;;;;;;;;;;;;;;;-142.75;100.00;77828.34;4988113;28;20030;-66
2021/12/11 08:39:25;;;;;;;8.63;4.23;;;;;;;-142.75;100.00;77840.16;4989019;28;19914;-66
2021/12/11 08:41:53;;;;;;;11.63;4.40;;;;;;;-142.75;100.00;77830.31;4988330;28;20064;-66
2021/12/11 08:44:19;;;;;;;14.33;5.03;;;;;;;-142.75;100.00;77834.25;4989199;28;20038;-66
2021/12/11 08:46:50;;;;;;;12.68;4.90;;;;;;;-142.75;100.00;77846.06;4988974;28;20030;-67
2021/12/11 08:49:25;;;;;;;12.17;4.17;;;;;;;-142.75;100.00;77848.03;4988937;28;20022;-67
2021/12/11 08:51:55;;;;;;;11.23;5.17;;;;;;;-142.75;100.00;77853.94;4988405;28;20477;-67
2021/12/11 08:54:22;;;;;;;15.17;5.43;;;;;;;-142.75;100.00;77834.25;4989107;28;20121;-66
2021/12/11 08:56:49;;;;;;;9.97;5.30;;;;;;;-142.75;100.00;77824.41;4988841;28;20034;-68
2021/12/11 08:59:19;;;;;;;15.00;5.73;;;;;;;-142.75;100.00;77836.22;4988570;28;20034;-66
2021/12/11 09:02:01;;;;;;;15.90;5.60;;;;;;;-142.75;100.00;77828.34;4987964;28;20026;-67
2021/12/11 09:04:54;;;;;;;13.97;5.17;;;;;;;-142.75;100.00;77806.69;4988962;28;20079;-66
2021/12/11 09:07:35;;;;;;;13.03;4.93;;;;;;;-142.75;100.00;77769.28;4990598;28;20034;-67
2021/12/11 09:10:16;;;;;;;12.67;5.70;;;;;;;-142.75;100.00;77727.94;4987695;28;20479;-67
2021/12/11 09:13:23;;;;;;;16.03;6.57;;;;;;;-142.75;100.00;77692.47;4988655;28;20663;-67
2021/12/11 09:15:57;;;;;;;12.63;5.43;;;;;;;-142.75;100.00;77698.38;4989966;28;20061;-67
2021/12/11 09:18:29;;;;;;;11.07;5.07;;;;;;;-142.75;100.00;77704.28;4989455;28;20030;-66
2021/12/11 09:21:09;;;;;;;12.45;5.07;;;;;;;-142.75;100.00;77720.03;4986703;28;20500;-67
2021/12/11 09:23:48;;;;;;;11.75;5.78;;;;;;;-142.75;100.00;77731.88;4986970;28;20037;-67
2021/12/11 09:26:16;;;;;;;10.07;5.28;;;;;;;-142.75;100.00;77739.75;4988154;28;20041;-67
2021/12/11 09:28:52;;;;;;;9.73;4.73;;;;;;;-142.75;100.00;77757.47;4987284;28;20391;-67
2021/12/11 09:32:05;;;;;;;11.60;5.30;;;;;;;-142.75;100.00;77755.50;4987786;28;20036;-67
2021/12/11 09:34:37;;;;;;;12.20;5.53;;;;;;;-142.75;100.00;77755.50;4989594;28;20050;-67
2021/12/11 09:37:04;;;;;;;13.70;5.63;;;;;;;-142.75;100.00;77729.88;4988010;28;20467;-67
2021/12/11 09:39:58;;;;;;;12.40;5.95;;;;;;;-142.75;100.00;77674.75;4988045;28;20029;-67
2021/12/11 09:42:23;;;;;;;13.65;5.85;;;;;;;-142.75;100.00;77625.53;4990094;28;20054;-67
2021/12/11 09:44:57;;;;;;;12.87;5.43;;;;;;;-142.75;100.00;77546.78;4988423;28;20029;-67
2021/12/11 09:47:30;;;;;;;11.15;5.53;;;;;;;-142.75;100.00;77511.34;4986737;28;20500;-67
2021/12/11 09:50:03;;;;;;;13.55;6.20;;;;;;;-142.75;100.00;77460.13;4987155;28;20026;-67
2021/12/11 09:52:32;;;;;;;13.77;6.60;;;;;;;-142.75;100.00;77440.44;4987686;28;20023;-67
2021/12/11 09:55:15;;;;;;;9.23;5.40;;;;;;;-142.75;100.00;77405.00;4978357;28;20621;-67
2021/12/11 09:57:46;;;;;;;10.18;5.55;;;;;;;-142.75;100.00;77361.69;4983608;28;20023;-67
2021/12/11 10:00:15;;;;;;;9.48;5.35;;;;;;;-142.75;96.43;77314.44;4986917;28;20087;-67
2021/12/11 10:02:41;;;;;;;12.68;6.13;;;;;;;-142.75;94.52;77294.75;4987454;28;20045;-67
2021/12/11 10:05:34;;;;;;;12.55;6.50;;;;;;;-142.75;93.73;77286.88;4987571;28;20022;-67
2021/12/11 10:08:27;;;;;;;9.07;5.35;;;;;;;-142.75;93.94;77286.88;4987458;28;20037;-67
2021/12/11 10:11:14;;;;;;;15.10;7.05;;;;;;;-142.75;93.46;77275.06;4984809;28;20032;-66
2021/12/11 10:13:44;;;;;;;15.10;6.10;;;;;;;-142.75;91.03;77259.31;4996956;28;20037;-67
2021/12/11 10:16:10;;;;;;;13.18;6.32;;;;;;;-142.75;89.52;77273.09;4991107;28;20030;-67
2021/12/11 10:18:35;;;;;;;;;;;;;;;-142.75;88.42;77271.13;4991977;28;20042;-67
2021/12/11 10:21:13;;;;;;;12.25;5.00;;;;;;;-142.75;90.64;77271.13;4987662;28;19944;-67
2021/12/11 10:23:41;;;;;;;10.93;5.18;;;;;;;-142.75;88.11;77282.94;4987169;28;20027;-67
2021/12/11 10:26:10;;;;;;;9.75;4.53;;;;;;;-142.75;88.44;77282.94;4989674;28;20436;-67
2021/12/11 10:28:38;;;;;;;10.45;4.38;;;;;;;-142.75;88.36;77235.69;4987146;28;20033;-67
2021/12/11 10:31:36;;;;;;;11.45;4.50;;;;;;;-142.75;88.55;77241.59;4985415;28;20019;-64
2021/12/11 10:34:06;;;;;;;8.75;4.50;;;;;;;-142.75;87.70;77219.94;4988080;28;20044;-67
2021/12/11 10:36:37;;;;;;;12.63;4.57;;;;;;;-142.75;87.40;77182.53;4983361;28;20068;-66
2021/12/11 10:39:07;;;;;;;14.80;4.93;;;;;;;-142.75;86.10;77156.94;4977764;28;20031;-67
2021/12/11 10:41:33;;;;;;;10.93;4.90;;;;;;;-142.75;85.60;77168.75;4977243;28;20027;-67
2021/12/11 10:44:06;;;;;;;13.02;4.35;;;;;;;-142.75;85.96;77168.75;4976409;28;20511;-68
2021/12/11 10:46:39;;;;;;;11.05;3.75;;;;;;;-142.75;83.96;77168.75;4984682;28;20403;-67
2021/12/11 10:49:08;;;;;;;15.00;4.68;;;;;;;-142.75;84.79;77151.03;4982433;28;20464;-68
2021/12/11 10:51:41;;;;;;;14.57;4.75;;;;;;;-142.75;83.87;77178.59;4980972;28;20030;-67
2021/12/11 10:54:08;;;;;;;10.60;4.05;;;;;;;-142.75;83.31;77149.06;4981589;28;20037;-67
2021/12/11 10:56:34;;;;;;;7.70;3.53;;;;;;;-142.75;81.99;77141.19;4980766;28;20019;-67
2021/12/11 10:59:07;;;;;;;9.52;4.22;;;;;;;-142.75;83.05;77101.81;4979631;28;20033;-67
2021/12/11 11:01:45;;;;;;;12.02;4.22;;;;;;;-142.75;81.31;77066.38;4980838;28;20054;-65
2021/12/11 11:04:35;;;;;;;10.63;4.25;;;;;;;-142.75;80.96;77070.31;4980726;28;20031;-65
2021/12/11 11:07:03;;;;;;;11.10;4.05;;;;;;;-142.75;81.87;77086.06;4988680;28;20029;-66
2021/12/11 11:09:28;;;;;;;10.07;4.35;;;;;;;-142.75;82.45;77184.50;4985540;28;20026;-65
2021/12/11 11:11:57;;;;;;;12.68;3.63;;;;;;;-142.75;85.87;77227.81;4979955;28;20511;-66
2021/12/11 11:14:23;;;;;;;12.13;3.83;;;;;;;-142.75;88.71;77255.38;4979516;28;20052;-66
2021/12/11 11:16:53;;;;;;;14.45;4.22;;;;;;;-142.75;91.72;77298.69;4982551;28;20026;-66
2021/12/11 11:19:21;;;;;;;11.38;4.45;;;;;;;-142.75;94.88;77367.59;4986851;28;20597;-66
2021/12/11 11:21:50;;;;;;;13.35;4.07;;;;;;;-142.75;98.03;77401.06;4989294;28;20059;-66
2021/12/11 11:24:16;;;;;;;15.65;4.38;;;;;;;-142.75;100.00;77434.53;5011349;23;20053;-67
2021/12/11 11:26:45;;;;;;;15.40;3.95;;;;;;;-142.75;100.00;77424.69;4990534;28;20034;-67
2021/12/11 11:29:15;;;;;;;8.98;3.47;;;;;;;-142.75;100.00;77448.34;4989944;28;20030;-69
2021/12/11 11:31:44;;;;;;;14.07;3.70;;;;;;;-142.75;100.00;77468.03;4988984;28;20031;-66
2021/12/11 11:34:12;;;;;;;15.57;3.95;;;;;;;-142.75;100.00;77501.50;4988232;28;20021;-67